• Join FlightAware (Why Join?)
  • Login
  • US Flag 
06:17AM EDT


 

Airport Tracker/Info


-or-


 

Live Flight TrackerFlight Track Log ✈ N27XP ✈ 19-Jun-2013 ✈ KOMA - KRDU

Flight Track Log - Related Links

Times and Time Zones

All times are in EDT time to prevent confusion due to time zone crossing. See the N27XP flight status page for this flight to view local times or setup timezone preferences in your user account.

Time Position Orientation Groundspeed Altitude Reporting Facility
EDT Latitude Longitude Course Direction KTS MPH feet Rate Location/Type
12:50PM 41.2936 -95.9003 146° Southeast 160 184 1,400  Level Minneapolis Center
12:51PM 41.2467 -95.8586 146° Southeast 190 219 4,300 2,040 Climbing Minneapolis Center
12:51PM 41.2397 -95.8142 102° East 204 235 4,900 1,680 Climbing Minneapolis Center
12:52PM 41.2275 -95.7133 99° East 252 290 6,900 2,040 Climbing Minneapolis Center
12:53PM 41.2139 -95.6061 100° East 277 319 9,200 1,860 Climbing Minneapolis Center
12:54PM 41.1956 -95.4900 102° East 299 344 10,800 1,500 Climbing Minneapolis Center
12:55PM 41.1681 -95.3633 106° East 346 398 12,400 1,380 Climbing Minneapolis Center
12:57PM 41.1408 -95.2342 106° East 358 412 13,700 1,500 Climbing Minneapolis Center
12:58PM 41.1086 -95.0764 105° East 367 422 15,500 1,440 Climbing Minneapolis Center
12:59PM 41.0825 -94.9447 105° East 369 425 16,700 1,140 Climbing Minneapolis Center
01:00PM 41.0542 -94.8122 106° East 372 428 17,900 1,140 Climbing Minneapolis Center
01:01PM 41.0278 -94.6772 104° East 375 432 19,100 1,140 Climbing Minneapolis Center
01:02PM 40.9958 -94.5342 106° East 383 441 20,300 1,200 Climbing Minneapolis Center
01:03PM 40.9669 -94.3992 106° East 385 443 21,600 1,080 Climbing Minneapolis Center
01:04PM 40.9378 -94.2628 106° East 388 447 22,600 1,200 Climbing Minneapolis Center
01:05PM 40.9031 -94.0953 105° East 394 453 24,100 1,380 Climbing Minneapolis Center
01:06PM 40.8706 -93.9550 107° East 400 460 25,500 1,200 Climbing Minneapolis Center
01:07PM 40.8400 -93.8136 106° East 402 463 26,600 1,080 Climbing Minneapolis Center
01:08PM 40.8092 -93.6681 106° East 409 471 27,800 1,080 Climbing Minneapolis Center
01:09PM 40.7778 -93.5233 106° East 412 474 28,900 1,020 Climbing Minneapolis Center
01:10PM 40.7406 -93.3481 106° East 414 476 30,000 900 Climbing Minneapolis Center
01:11PM 40.7078 -93.2017 106° East 417 480 30,800 660 Climbing Minneapolis Center
01:12PM 40.6739 -93.0533 107° East 420 483 31,500 780 Climbing Minneapolis Center
01:13PM 40.6342 -92.8719 106° East 427 491 32,700 1,200 Climbing Minneapolis Center
01:14PM 40.5942 -92.6964 107° East 418 481 34,100 1,080 Climbing Chicago Center
01:15PM 40.5672 -92.5753 106° East 415 478 34,900 780 Climbing Kansas City Center
01:16PM 40.5333 -92.4294 107° East 417 480 35,700 720 Climbing Kansas City Center
01:17PM 40.5000 -92.2858 107° East 417 480 36,500 540 Climbing Kansas City Center
01:19PM 40.4583 -92.1122 107° East 419 482 37,000 180 Climbing Chicago Center
01:20PM 40.4161 -91.9325 107° East 431 496 37,000  Level Chicago Center
01:20PM 40.3867 -91.8083 107° East 438 504 37,000  Level Kansas City Center
01:21PM 40.3486 -91.6511 108° East 450 518 37,000  Level Kansas City Center
01:23PM 40.3111 -91.4906 107° East 459 528 37,000  Level Kansas City Center
01:24PM 40.2719 -91.3297 108° East 465 535 37,000  Level Kansas City Center
01:25PM 40.2244 -91.1322 107° East 475 547 37,000  Level Kansas City Center
01:26PM 40.1850 -90.9678 107° East 477 549 37,000  Level Kansas City Center
01:27PM 40.1433 -90.7994 108° East 474 545 37,000  Level Kansas City Center
01:28PM 40.1017 -90.6367 108° East 474 545 37,000  Level Kansas City Center
01:29PM 40.0625 -90.4769 108° East 469 540 37,000  Level Kansas City Center
01:30PM 40.0225 -90.3161 108° East 468 539 37,000  Level Kansas City Center
01:31PM 39.9736 -90.1247 108° East 467 537 37,000  Level Kansas City Center
01:32PM 39.9317 -89.9639 109° East 469 540 37,000  Level Kansas City Center
01:33PM 39.8911 -89.8042 108° East 469 540 37,000  Level Kansas City Center
01:34PM 39.8500 -89.6425 108° East 471 542 37,000  Level Kansas City Center
01:35PM 39.8072 -89.4811 109° East 474 545 37,000  Level Kansas City Center
01:36PM 39.7661 -89.3214 108° East 471 542 37,000  Level Kansas City Center
01:37PM 39.7142 -89.1300 109° East 470 541 37,000  Level Kansas City Center
01:38PM 39.6719 -88.9689 109° East 471 542 37,000  Level Kansas City Center
01:39PM 39.6289 -88.8092 109° East 471 542 37,000  Level Kansas City Center
01:40PM 39.5858 -88.6472 109° East 474 545 37,000  Level Kansas City Center
01:41PM 39.5419 -88.4906 110° East 470 541 37,000  Level Kansas City Center
01:42PM 39.4903 -88.2972 109° East 469 540 37,000  Level Kansas City Center
01:43PM 39.4453 -88.1358 110° East 472 543 37,000  Level Kansas City Center
01:44PM 39.4006 -87.9733 110° East 474 545 37,000  Level Kansas City Center
01:45PM 39.3561 -87.8100 109° East 477 549 37,000  Level Kansas City Center
01:46PM 39.3097 -87.6528 111° Southeast 475 547 37,000  Level Indianapolis Center
01:47PM 39.2614 -87.4803 110° East 473 544 37,000  Level Indianapolis Center
01:48PM 39.2161 -87.3214 110° East 473 544 37,000  Level Indianapolis Center
01:49PM 39.1694 -87.1617 111° Southeast 477 549 37,000  Level Indianapolis Center
01:50PM 39.1175 -86.9778 110° East 471 542 37,000  Level Indianapolis Center
01:51PM 39.0711 -86.8169 110° East 476 548 37,000  Level Indianapolis Center
01:52PM 39.0250 -86.6572 110° East 474 545 37,000  Level Indianapolis Center
01:54PM 38.9778 -86.4992 111° Southeast 476 548 37,000  Level Indianapolis Center
01:55PM 38.9317 -86.3436 111° Southeast 472 543 37,000  Level Indianapolis Center
01:56PM 38.8839 -86.1786 110° East 473 544 37,000  Level Indianapolis Center
01:57PM 38.8369 -86.0211 111° Southeast 472 543 37,000  Level Indianapolis Center
01:58PM 38.7836 -85.8450 111° Southeast 469 540 37,000  Level Indianapolis Center
01:59PM 38.7372 -85.6917 111° Southeast 466 536 37,000  Level Indianapolis Center
02:00PM 38.6908 -85.5383 111° Southeast 465 535 37,000  Level Indianapolis Center
02:01PM 38.6433 -85.3858 112° Southeast 463 533 37,000  Level Indianapolis Center
02:02PM 38.5931 -85.2161 111° Southeast 463 533 37,000  Level Indianapolis Center
02:03PM 38.5450 -85.0556 111° Southeast 463 533 37,000  Level Indianapolis Center
02:04PM 38.4978 -84.9042 112° Southeast 459 528 37,000  Level Indianapolis Center
02:05PM 38.4478 -84.7544 113° Southeast 457 526 37,000  Level Indianapolis Center
02:06PM 38.4006 -84.6036 112° Southeast 458 527 37,000  Level Indianapolis Center
02:07PM 38.3531 -84.4497 111° Southeast 462 532 37,000  Level Indianapolis Center
02:08PM 38.2972 -84.2736 112° Southeast 460 529 37,000  Level Indianapolis Center
02:09PM 38.2478 -84.1214 112° Southeast 463 533 37,000  Level Indianapolis Center
02:10PM 38.1992 -83.9706 112° Southeast 461 531 37,000  Level Indianapolis Center
02:11PM 38.1500 -83.8197 112° Southeast 458 527 37,000  Level Indianapolis Center
02:12PM 38.1011 -83.6686 112° Southeast 460 529 37,000  Level Indianapolis Center
02:13PM 38.0528 -83.5186 112° Southeast 457 526 37,000  Level Indianapolis Center
02:14PM 38.0047 -83.3719 113° Southeast 451 519 37,000  Level Indianapolis Center
02:15PM 37.9469 -83.1997 113° Southeast 452 520 37,000  Level Indianapolis Center
02:16PM 37.8983 -83.0522 113° Southeast 451 519 37,000  Level Indianapolis Center
02:17PM 37.8486 -82.9028 113° Southeast 455 524 37,000  Level Indianapolis Center
02:18PM 37.7983 -82.7547 113° Southeast 456 525 37,000  Level Indianapolis Center
02:19PM 37.7492 -82.6056 113° Southeast 457 526 37,000 -300 Level Indianapolis Center
02:20PM 37.6967 -82.4553 114° Southeast 464 534 36,500 -840 Descending Indianapolis Center
02:21PM 37.6433 -82.2981 113° Southeast 481 554 35,400 -1,140 Descending Indianapolis Center
02:22PM 37.5825 -82.1175 113° Southeast 476 548 34,200 -1,140 Descending Indianapolis Center
02:23PM 37.5294 -81.9628 113° Southeast 478 550 33,100 -1,020 Descending Indianapolis Center
02:24PM 37.4750 -81.8067 114° Southeast 482 555 32,100 -1,020 Descending Indianapolis Center
02:25PM 37.4206 -81.6531 114° Southeast 480 552 31,000 -1,020 Descending Indianapolis Center
02:27PM 37.3656 -81.4953 114° Southeast 486 559 30,000 -1,020 Descending Indianapolis Center
02:28PM 37.3114 -81.3456 114° Southeast 486 559 29,000 -540 Descending Indianapolis Center
02:29PM 37.2483 -81.1644 114° Southeast 487 560 29,000  Level Indianapolis Center
02:30PM 37.2153 -81.0044 104° East 489 563 29,000 -300 Level Indianapolis Center
02:31PM 37.1881 -80.8425 102° East 490 564 28,400 -780 Descending Indianapolis Center
02:31PM 37.1694 -80.7500 104° East 486 559 27,800 -2,220 Descending Washington Center
02:32PM 37.1414 -80.5789 102° East 491 565 25,000 -960 Descending Washington Center
02:33PM 37.1103 -80.4153 103° East 491 565 25,900 -180 Climbing Washington Center
02:34PM 37.0633 -80.2381 108° East 486 559 24,700 -960 Descending Washington Center
02:35PM 37.0169 -80.0817 110° East 486 559 24,000 -360 Descending Washington Center
02:36PM 36.9739 -79.9492 112° Southeast 459 528 24,000 -480 Level Washington Center
02:37PM 36.9383 -79.8353 111° Southeast 403 464 23,100 -960 Descending Washington Center
02:38PM 36.8969 -79.7086 112° Southeast 390 449 22,100 -960 Descending Washington Center
02:39PM 36.8575 -79.5817 111° Southeast 390 449 21,200 -600 Descending Washington Center
02:40PM 36.8158 -79.4472 111° Southeast 380 437 21,000 -300 Descending Washington Center
02:41PM 36.7758 -79.3261 112° Southeast 380 437 20,700 -960 Descending Washington Center
02:42PM 36.7361 -79.1997 111° Southeast 380 437 19,200 -1,380 Descending Washington Center
02:43PM 36.6997 -79.0892 112° Southeast 375 432 18,000 -1,140 Descending Washington Center
02:44PM 36.6353 -79.0061 134° Southeast 325 374 17,000 -1,440 Descending Washington Center
02:45PM 36.5444 -78.9761 165° South 313 360 15,200 -2,400 Descending Washington Center
02:46PM 36.4344 -78.9481 168° South 348 400 11,900 -2,280 Descending Washington Center
02:47PM 36.3664 -78.9272 166° South 343 395 10,600 -1,320 Descending Washington Center
02:48PM 36.2669 -78.8972 166° South 343 395 9,500 -960 Descending Washington Center
02:49PM 36.1925 -78.8761 167° South 321 369 8,800 -720 Descending Washington Center
02:50PM 36.1075 -78.8544 168° South 301 346 8,100 -480 Descending Washington Center
02:51PM 36.0347 -78.8414 172° South 287 330 7,900 -660 Descending Washington Center
02:52PM 35.9719 -78.8489 186° South 249 287 6,800 -1,140 Descending Washington Center
02:53PM 35.9247 -78.8958 219° Southwest 221 254 5,600 -1,320 Descending Washington Center
02:54PM 35.8836 -78.9506 227° Southwest 221 254 4,300 -1,380 Descending Washington Center
02:55PM 35.8603 -78.9675 210° Southwest 227 261 3,600 -1,320 Descending Washington Center
02:55PM 35.8356 -78.9483 148° Southeast 187 215 3,000 -1,020 Descending Washington Center
02:56PM 35.8264 -78.9069 105° East 185 213 2,500 -900 Descending Washington Center
02:57PM 35.8258 -78.8531 91° East 151 174 1,600 -840 Descending Washington Center
02:58PM 35.8475 -78.8183 52° Northeast 116 133 900 -720 Descending Washington Center
03:00PM 35.8667 -78.7833 90° East  Level FlightAware Approximate
03:07PM 35.8776 -78.7875 90° East  Level Estimated
03:08PM 35.8776 -78.7875 90° East  Level Estimated
03:09PM 35.8776 -78.7875 90° East  Level Estimated
03:10PM 35.8776 -78.7875 90° East  Level Estimated
03:11PM 35.8776 -78.7875 90° East  Level Estimated